createdAt,value
2023-01-04T00:01:17.544Z,86.33
2023-01-04T00:03:44.555Z,86.86
2023-01-04T00:06:14.143Z,86.11
2023-01-04T00:08:40.982Z,86.36
2023-01-04T00:11:11.272Z,85.89
2023-01-04T00:13:37.920Z,85.68
2023-01-04T00:18:54.627Z,86.50
2023-01-04T00:21:27.353Z,86.65
2023-01-04T00:23:56.372Z,86.07
2023-01-04T00:26:26.135Z,85.42
2023-01-04T00:28:58.641Z,85.87
2023-01-04T00:31:26.479Z,85.58
2023-01-04T00:33:58.265Z,85.83
2023-01-04T00:36:25.063Z,85.27
2023-01-04T00:39:10.655Z,86.18
2023-01-04T00:42:01.702Z,86.19
2023-01-04T00:44:29.442Z,86.55
2023-01-04T00:46:56.391Z,87.35
2023-01-04T00:49:23.447Z,86.91
2023-01-04T00:51:50.257Z,87.32
2023-01-04T00:54:17.255Z,86.79
2023-01-04T00:56:44.418Z,86.82
2023-01-04T00:59:13.383Z,86.72
2023-01-04T01:01:41.725Z,87.48
2023-01-04T01:04:12.003Z,88.01
2023-01-04T01:06:39.161Z,88.00
2023-01-04T01:09:05.990Z,87.59
2023-01-04T01:11:32.710Z,87.88
2023-01-04T01:13:59.485Z,88.07
2023-01-04T01:16:53.145Z,87.90
2023-01-04T01:19:13.828Z,88.62
2023-01-04T01:21:40.432Z,88.38
2023-01-04T01:24:07.519Z,88.36
2023-01-04T01:26:34.536Z,87.92
2023-01-04T01:29:01.173Z,88.82
2023-01-04T01:31:29.145Z,89.01
2023-01-04T01:33:57.036Z,88.30
2023-01-04T01:36:26.027Z,87.74
2023-01-04T01:38:53.481Z,86.91
2023-01-04T01:41:24.034Z,86.84
2023-01-04T01:43:56.718Z,86.28
2023-01-04T01:46:53.729Z,86.19
2023-01-04T01:49:32.091Z,86.40
2023-01-04T01:52:02.162Z,86.17
2023-01-04T01:54:36.998Z,86.13
2023-01-04T01:57:07.549Z,85.55
2023-01-04T01:59:40.024Z,85.34
2023-01-04T02:02:07.181Z,85.65
2023-01-04T02:04:35.425Z,85.90
2023-01-04T02:07:02.855Z,85.77
2023-01-04T02:09:31.361Z,86.47
2023-01-04T02:11:57.895Z,86.99
2023-01-04T02:14:27.786Z,87.26
2023-01-04T02:17:04.173Z,87.34
2023-01-04T02:20:03.904Z,87.50
2023-01-04T02:23:08.503Z,88.02
2023-01-04T02:26:02.844Z,88.06
2023-01-04T02:28:41.515Z,88.45
2023-01-04T02:31:32.741Z,88.51
2023-01-04T02:34:14.236Z,88.31
2023-01-04T02:36:46.428Z,87.85
2023-01-04T02:39:36.484Z,87.76
2023-01-04T02:42:18.129Z,88.56
2023-01-04T02:47:55.090Z,90.28
2023-01-04T02:50:59.924Z,90.25
2023-01-04T02:53:29.020Z,90.91
2023-01-04T02:56:14.259Z,91.09
2023-01-04T02:58:40.765Z,91.11
2023-01-04T03:02:16.851Z,90.75
2023-01-04T03:05:12.911Z,91.83
2023-01-04T03:07:45.529Z,91.14
2023-01-04T03:10:31.236Z,91.36
2023-01-04T03:13:06.538Z,90.73
2023-01-04T03:15:38.076Z,90.70
2023-01-04T03:18:14.584Z,90.81
2023-01-04T03:20:43.048Z,90.31
2023-01-04T03:23:33.369Z,89.23
2023-01-04T03:26:20.860Z,90.14
2023-01-04T03:29:08.360Z,90.08
2023-01-04T03:31:59.678Z,91.17
2023-01-04T03:34:45.192Z,91.30
2023-01-04T03:37:25.835Z,91.64
2023-01-04T03:40:38.753Z,91.01
2023-01-04T03:43:37.805Z,90.75
2023-01-04T03:46:39.018Z,90.92
2023-01-04T03:49:57.550Z,90.53
2023-01-04T03:52:28.605Z,90.71
2023-01-04T03:54:57.738Z,90.48
2023-01-04T03:57:26.018Z,90.90
2023-01-04T04:00:01.173Z,90.18
2023-01-04T04:02:33.080Z,90.41
2023-01-04T04:05:18.215Z,90.54
2023-01-04T04:08:03.288Z,89.55
2023-01-04T04:10:29.846Z,90.04
2023-01-04T04:12:56.388Z,90.32
2023-01-04T04:15:22.945Z,90.12
2023-01-04T04:17:49.523Z,90.29
2023-01-04T04:20:16.572Z,89.30
2023-01-04T04:22:43.447Z,89.11
2023-01-04T04:25:10.402Z,88.63
2023-01-04T04:30:09.218Z,87.88
2023-01-04T04:32:35.850Z,87.53
2023-01-04T04:35:02.363Z,87.39
2023-01-04T04:37:32.141Z,87.12
2023-01-04T04:39:58.973Z,86.54
2023-01-04T04:45:04.454Z,86.48
2023-01-04T04:47:31.004Z,86.22
2023-01-04T04:49:57.573Z,85.56
2023-01-04T04:52:24.127Z,85.56
2023-01-04T04:54:50.729Z,85.19
2023-01-04T04:57:17.261Z,85.10
2023-01-04T04:59:43.875Z,85.02
2023-01-04T05:02:10.553Z,84.67
2023-01-04T05:04:37.173Z,84.29
2023-01-04T05:07:08.927Z,83.97
2023-01-04T05:09:38.700Z,83.65
2023-01-04T05:12:24.040Z,83.72
2023-01-04T05:14:50.570Z,83.72
2023-01-04T05:17:17.532Z,84.44
2023-01-04T05:19:44.033Z,84.20
2023-01-04T05:22:10.569Z,84.19
2023-01-04T05:24:37.090Z,83.73
2023-01-04T05:27:03.716Z,83.58
2023-01-04T05:29:48.841Z,83.46
2023-01-04T05:34:47.092Z,83.43
2023-01-04T05:37:13.646Z,83.16
2023-01-04T05:39:40.175Z,83.25
2023-01-04T05:42:25.137Z,82.84
2023-01-04T05:44:56.674Z,82.82
2023-01-04T05:47:24.493Z,82.48
2023-01-04T05:49:51.844Z,82.42
2023-01-04T05:52:18.957Z,82.88
2023-01-04T05:54:45.972Z,82.53
2023-01-04T05:57:13.559Z,82.74
2023-01-04T05:59:42.114Z,82.68
2023-01-04T06:02:24.544Z,93.45
2023-01-04T06:04:58.395Z,79.61
2023-01-04T06:07:25.836Z,80.42
2023-01-04T06:09:52.583Z,80.13
2023-01-04T06:12:19.334Z,80.19
2023-01-04T06:14:45.933Z,80.72
2023-01-04T06:17:12.898Z,80.59
2023-01-04T06:19:39.554Z,80.42
2023-01-04T06:22:07.249Z,80.41
2023-01-04T06:24:34.275Z,80.04
2023-01-04T06:27:01.919Z,80.11
2023-01-04T06:29:28.571Z,79.90
2023-01-04T06:31:55.382Z,79.06
2023-01-04T06:34:26.974Z,79.68
2023-01-04T06:36:57.467Z,80.17
2023-01-04T06:39:24.143Z,80.25
2023-01-04T06:41:50.863Z,80.47
2023-01-04T06:44:17.417Z,80.42
2023-01-04T06:46:44.034Z,80.80
2023-01-04T06:49:10.728Z,80.06
2023-01-04T06:51:37.283Z,79.96
2023-01-04T06:54:04.171Z,79.91
2023-01-04T06:56:32.286Z,80.35
2023-01-04T07:01:31.146Z,79.18
2023-01-04T07:03:57.833Z,78.93
2023-01-04T07:06:24.409Z,79.14
2023-01-04T07:08:50.993Z,79.48
2023-01-04T07:11:17.523Z,79.07
2023-01-04T07:13:44.084Z,79.60
2023-01-04T07:16:10.827Z,79.58
2023-01-04T07:18:37.348Z,79.76
2023-01-04T07:21:04.107Z,79.13
2023-01-04T07:23:30.642Z,79.88
2023-01-04T07:26:01.294Z,80.25
2023-01-04T07:28:46.548Z,80.92
2023-01-04T07:31:13.283Z,82.44
2023-01-04T07:33:39.976Z,83.15
2023-01-04T07:36:07.426Z,83.33
2023-01-04T07:38:35.241Z,82.85
2023-01-04T07:41:01.999Z,83.01
2023-01-04T07:43:28.935Z,83.51
2023-01-04T07:45:56.159Z,84.72
2023-01-04T07:48:22.946Z,86.58
2023-01-04T07:50:50.187Z,86.92
2023-01-04T07:53:16.902Z,86.35
2023-01-04T07:55:43.503Z,87.92
2023-01-04T07:58:10.063Z,88.23
2023-01-04T08:00:36.680Z,89.29
2023-01-04T08:03:03.437Z,89.07
2023-01-04T08:05:34.706Z,89.00
2023-01-04T08:08:01.396Z,89.02
2023-01-04T08:13:02.890Z,91.86
2023-01-04T08:15:29.531Z,91.67
2023-01-04T08:17:56.907Z,92.59
2023-01-04T08:20:24.526Z,92.25
2023-01-04T08:22:51.069Z,91.81
2023-01-04T08:25:17.693Z,92.28
2023-01-04T08:27:44.650Z,91.70
2023-01-04T08:30:11.388Z,92.44
2023-01-04T08:32:39.686Z,93.18
2023-01-04T08:35:06.658Z,90.66
2023-01-04T08:37:35.117Z,92.41
2023-01-04T08:40:02.017Z,92.87
2023-01-04T08:42:31.827Z,91.98
2023-01-04T08:45:01.563Z,93.69
2023-01-04T08:47:30.494Z,91.89
2023-01-04T08:49:57.804Z,93.17
2023-01-04T08:52:24.686Z,93.00
2023-01-04T08:54:51.355Z,92.13
2023-01-04T08:57:18.705Z,93.28
2023-01-04T08:59:45.325Z,91.98
2023-01-04T09:02:24.271Z,92.54
2023-01-04T09:04:51.454Z,92.43
2023-01-04T09:07:18.607Z,91.59
2023-01-04T09:09:45.416Z,91.99
2023-01-04T09:12:12.173Z,92.23
2023-01-04T09:14:39.390Z,91.07
2023-01-04T09:17:06.356Z,90.87
2023-01-04T09:19:33.001Z,90.81
2023-01-04T09:21:59.708Z,90.40
2023-01-04T09:24:26.349Z,89.72
2023-01-04T09:26:53.252Z,91.48
2023-01-04T09:29:20.113Z,89.67
2023-01-04T09:31:47.122Z,86.62
2023-01-04T09:34:16.008Z,87.25
2023-01-04T09:36:44.534Z,86.82
2023-01-04T09:39:18.741Z,87.15
2023-01-04T09:42:00.006Z,84.57
2023-01-04T09:48:00.056Z,86.22
2023-01-04T09:50:37.444Z,92.88
2023-01-04T09:53:18.542Z,83.83
2023-01-04T09:58:31.607Z,86.26
2023-01-04T10:01:03.202Z,84.92
2023-01-04T10:03:33.297Z,85.81
2023-01-04T10:08:32.509Z,83.43
2023-01-04T10:11:14.273Z,84.22
2023-01-04T10:13:55.791Z,84.53
2023-01-04T10:22:40.094Z,83.19
2023-01-04T10:28:34.280Z,83.11
2023-01-04T10:31:39.287Z,82.44
2023-01-04T10:34:39.207Z,81.94
2023-01-04T10:37:22.478Z,80.34
2023-01-04T10:39:55.751Z,82.06
2023-01-04T10:42:30.751Z,81.13
2023-01-04T10:45:09.347Z,83.49
2023-01-04T10:47:47.417Z,83.50
2023-01-04T10:50:30.603Z,81.66
2023-01-04T10:53:05.914Z,79.98
2023-01-04T10:56:23.123Z,81.92
2023-01-04T10:58:35.964Z,81.14
2023-01-04T11:01:12.427Z,79.48
2023-01-04T11:03:53.881Z,79.21
2023-01-04T11:06:40.920Z,79.79
2023-01-04T11:09:21.139Z,77.08
2023-01-04T11:11:51.523Z,78.04
2023-01-04T11:14:18.368Z,78.77
2023-01-04T11:16:48.959Z,79.15
2023-01-04T11:19:15.827Z,78.03
2023-01-04T11:21:52.557Z,77.29
2023-01-04T11:24:32.104Z,76.99
2023-01-04T11:27:06.269Z,77.04
2023-01-04T11:29:42.640Z,77.60
2023-01-04T11:34:57.711Z,76.13
2023-01-04T11:37:25.909Z,76.72
2023-01-04T11:39:52.531Z,76.11
2023-01-04T11:42:22.274Z,76.04
2023-01-04T11:44:59.155Z,77.68
2023-01-04T11:47:31.418Z,76.56
2023-01-04T11:49:59.811Z,76.43
2023-01-04T11:52:33.437Z,76.58
2023-01-04T11:55:25.654Z,76.25
2023-01-04T11:58:11.339Z,75.83
2023-01-04T12:00:39.134Z,76.11
2023-01-04T12:03:18.718Z,77.49
2023-01-04T12:05:45.322Z,76.74
2023-01-04T12:08:32.136Z,76.00
2023-01-04T12:11:00.959Z,76.60
2023-01-04T12:13:28.983Z,76.83
2023-01-04T12:16:07.817Z,76.96
2023-01-04T12:18:43.600Z,76.91
2023-01-04T12:21:19.381Z,76.80
2023-01-04T12:23:47.048Z,77.51
2023-01-04T12:26:14.976Z,78.07
2023-01-04T12:28:44.961Z,76.89
2023-01-04T12:31:21.269Z,77.16
2023-01-04T12:34:13.347Z,77.40
2023-01-04T12:36:39.867Z,76.97
2023-01-04T12:39:12.621Z,77.41
2023-01-04T12:41:39.121Z,77.06
2023-01-04T12:44:39.907Z,77.85
2023-01-04T12:47:37.347Z,78.07
2023-01-04T12:50:27.735Z,78.02
2023-01-04T12:55:55.470Z,78.26
2023-01-04T12:59:06.874Z,78.38
2023-01-04T13:01:24.118Z,78.28
2023-01-04T13:03:59.447Z,77.77
2023-01-04T13:06:35.966Z,78.35
2023-01-04T13:09:02.651Z,78.44
2023-01-04T13:11:55.532Z,77.86
2023-01-04T13:14:44.074Z,77.61
2023-01-04T13:17:16.655Z,77.24
2023-01-04T13:19:44.388Z,77.20
2023-01-04T13:22:23.401Z,77.31
2023-01-04T13:24:56.425Z,77.61
2023-01-04T13:27:24.458Z,77.62
2023-01-04T13:29:52.233Z,77.31
2023-01-04T13:32:30.739Z,78.21
2023-01-04T13:35:13.947Z,77.93
2023-01-04T13:37:45.653Z,77.06
2023-01-04T13:40:21.967Z,77.28
2023-01-04T13:42:51.969Z,77.67
2023-01-04T13:45:40.600Z,76.88
2023-01-04T13:48:13.085Z,76.98
2023-01-04T13:50:47.391Z,77.02
2023-01-04T13:53:25.148Z,77.13
2023-01-04T13:55:53.941Z,77.39
2023-01-04T13:58:42.268Z,77.35
2023-01-04T14:01:11.935Z,77.54
2023-01-04T14:03:43.807Z,77.26
2023-01-04T14:06:10.405Z,77.21
2023-01-04T14:08:50.778Z,77.03
2023-01-04T14:11:39.636Z,77.54
2023-01-04T14:17:12.800Z,77.54
2023-01-04T14:19:49.832Z,77.74
2023-01-04T14:22:44.604Z,77.63
2023-01-04T14:25:34.444Z,77.53
2023-01-04T14:28:24.693Z,77.16
2023-01-04T14:30:54.344Z,77.19
2023-01-04T14:33:26.434Z,77.00
2023-01-04T14:36:27.058Z,77.41
2023-01-04T14:39:08.755Z,77.35
2023-01-04T14:41:42.443Z,77.13
2023-01-04T14:44:12.541Z,77.27
2023-01-04T14:46:41.936Z,77.50
2023-01-04T14:49:08.713Z,77.59
2023-01-04T14:51:38.837Z,77.61
2023-01-04T14:54:06.706Z,78.04
2023-01-04T14:56:34.592Z,77.71
2023-01-04T14:59:01.311Z,78.16
2023-01-04T15:01:28.127Z,77.55
2023-01-04T15:03:55.182Z,77.87
2023-01-04T15:06:21.947Z,78.09
2023-01-04T15:08:49.009Z,77.50
2023-01-04T15:11:15.932Z,77.29
2023-01-04T15:13:42.532Z,77.53
2023-01-04T15:16:12.174Z,77.40
2023-01-04T15:21:13.568Z,77.45
2023-01-04T15:23:40.484Z,77.47
2023-01-04T15:26:08.922Z,77.57
2023-01-04T15:28:36.348Z,77.30
2023-01-04T15:31:08.341Z,77.39
2023-01-04T15:33:35.740Z,77.55
2023-01-04T15:36:04.978Z,77.49
2023-01-04T15:38:31.587Z,77.38
2023-01-04T15:41:05.899Z,77.74
2023-01-04T15:43:36.664Z,77.83
2023-01-04T15:46:08.581Z,78.17
2023-01-04T15:48:36.765Z,77.83
2023-01-04T15:51:07.837Z,77.81
2023-01-04T15:53:35.089Z,77.72
2023-01-04T15:56:10.979Z,77.81
2023-01-04T15:58:38.010Z,78.08
2023-01-04T16:01:15.589Z,77.81
2023-01-04T16:03:42.323Z,77.76
2023-01-04T16:06:11.170Z,77.98
2023-01-04T16:08:37.779Z,78.18
2023-01-04T16:11:16.559Z,78.18
2023-01-04T16:13:44.258Z,78.65
2023-01-04T16:16:11.426Z,78.24
2023-01-04T16:18:38.824Z,78.56
2023-01-04T16:21:09.130Z,78.23
2023-01-04T16:23:38.333Z,78.68
2023-01-04T16:26:13.478Z,78.26
2023-01-04T16:28:40.627Z,78.46
2023-01-04T16:31:08.463Z,79.01
2023-01-04T16:33:35.874Z,78.63
2023-01-04T16:36:08.592Z,78.76
2023-01-04T16:38:37.463Z,78.71
2023-01-04T16:41:06.228Z,78.56
2023-01-04T16:43:41.680Z,78.64
2023-01-04T16:46:15.367Z,78.94
2023-01-04T16:48:47.602Z,78.74
2023-01-04T16:51:14.696Z,78.64
2023-01-04T16:53:41.511Z,78.80
2023-01-04T16:56:10.650Z,78.54
2023-01-04T16:58:37.512Z,78.56
2023-01-04T17:01:17.225Z,78.42
2023-01-04T17:03:45.297Z,78.41
2023-01-04T17:06:14.573Z,78.74
2023-01-04T17:08:41.854Z,78.15
2023-01-04T17:12:11.491Z,77.67
2023-01-04T17:13:59.741Z,77.44
2023-01-04T17:16:32.619Z,77.75
2023-01-04T17:19:01.203Z,78.37
2023-01-04T17:21:34.192Z,81.04
2023-01-04T17:24:01.102Z,77.35
2023-01-04T17:26:30.434Z,77.24
2023-01-04T17:28:58.473Z,77.57
2023-01-04T17:31:28.599Z,77.40
2023-01-04T17:33:55.400Z,77.24
2023-01-04T17:36:22.155Z,77.50
2023-01-04T17:38:49.609Z,76.99
2023-01-04T17:41:18.124Z,77.70
2023-01-04T17:43:48.452Z,77.36
2023-01-04T17:46:22.805Z,77.23
2023-01-04T17:49:17.997Z,77.48
2023-01-04T17:51:40.042Z,77.85
2023-01-04T17:54:08.617Z,77.41
2023-01-04T17:56:37.274Z,78.06
2023-01-04T17:59:06.905Z,76.99
2023-01-04T18:01:35.101Z,77.40
2023-01-04T18:04:03.117Z,77.22
2023-01-04T18:09:08.150Z,77.93
2023-01-04T18:11:35.859Z,77.65
2023-01-04T18:14:05.997Z,78.14
2023-01-04T18:16:57.165Z,78.13
2023-01-04T18:19:26.626Z,78.39
2023-01-04T18:21:53.256Z,78.82
2023-01-04T18:24:37.225Z,79.14
2023-01-04T18:27:23.722Z,79.47
2023-01-04T18:29:52.080Z,79.05
2023-01-04T18:32:19.275Z,79.48
2023-01-04T18:34:45.851Z,79.98
2023-01-04T18:37:12.476Z,79.98
2023-01-04T18:39:39.087Z,79.94
2023-01-04T18:42:05.686Z,80.13
2023-01-04T18:44:34.960Z,82.27
2023-01-04T18:47:03.436Z,78.04
2023-01-04T18:49:30.179Z,78.58
2023-01-04T18:51:56.813Z,79.25
2023-01-04T18:54:23.883Z,79.89
2023-01-04T18:56:53.221Z,80.21
2023-01-04T18:59:24.160Z,80.00
2023-01-04T19:01:51.137Z,80.39
2023-01-04T19:06:58.606Z,80.77
2023-01-04T19:11:56.495Z,80.35
2023-01-04T19:14:23.122Z,80.89
2023-01-04T19:16:49.909Z,80.87
2023-01-04T19:19:16.546Z,80.95
2023-01-04T19:21:43.192Z,81.08
2023-01-04T19:24:09.732Z,81.18
2023-01-04T19:26:36.472Z,81.36
2023-01-04T19:29:05.067Z,81.24
2023-01-04T19:31:31.609Z,81.73
2023-01-04T19:33:58.337Z,81.46
2023-01-04T19:36:24.978Z,81.50
2023-01-04T19:38:51.546Z,81.69
2023-01-04T19:41:29.119Z,81.59
2023-01-04T19:43:58.129Z,81.94
2023-01-04T19:46:25.376Z,81.96
2023-01-04T19:48:52.049Z,82.26
2023-01-04T19:51:19.035Z,82.39
2023-01-04T19:53:45.848Z,82.95
2023-01-04T19:56:14.639Z,82.99
2023-01-04T19:58:41.233Z,83.52
2023-01-04T20:01:11.882Z,83.86
2023-01-04T20:03:38.763Z,84.30
2023-01-04T20:06:06.234Z,84.23
2023-01-04T20:08:33.617Z,84.81
2023-01-04T20:11:01.562Z,84.78
2023-01-04T20:13:29.760Z,85.21
2023-01-04T20:15:56.315Z,85.01
2023-01-04T20:18:26.387Z,85.19
2023-01-04T20:20:53.323Z,84.91
2023-01-04T20:23:21.793Z,85.29
2023-01-04T20:25:51.088Z,85.29
2023-01-04T20:28:20.016Z,85.86
2023-01-04T20:30:47.490Z,86.29
2023-01-04T20:33:14.411Z,86.66
2023-01-04T20:35:43.707Z,87.10
2023-01-04T20:38:11.490Z,87.11
2023-01-04T20:40:38.924Z,87.59
2023-01-04T20:43:23.853Z,87.79
2023-01-04T20:45:50.555Z,88.25
2023-01-04T20:48:17.256Z,88.48
2023-01-04T20:50:43.870Z,88.63
2023-01-04T20:53:11.620Z,88.27
2023-01-04T20:55:44.284Z,88.94
2023-01-04T20:58:14.731Z,88.70
2023-01-04T21:00:42.367Z,88.69
2023-01-04T21:03:11.041Z,89.07
2023-01-04T21:05:43.461Z,88.69
2023-01-04T21:08:11.990Z,88.98
2023-01-04T21:10:43.592Z,89.42
2023-01-04T21:13:11.530Z,89.42
2023-01-04T21:18:16.786Z,89.91
2023-01-04T21:20:44.021Z,90.09
2023-01-04T21:23:18.994Z,90.65
2023-01-04T21:25:46.029Z,91.22
2023-01-04T21:28:13.898Z,90.99
2023-01-04T21:30:42.049Z,91.29
2023-01-04T21:33:09.885Z,91.59
2023-01-04T21:35:37.051Z,91.73
2023-01-04T21:38:04.561Z,92.39
2023-01-04T21:40:32.686Z,92.36
2023-01-04T21:42:59.415Z,92.49
2023-01-04T21:45:26.566Z,92.22
2023-01-04T21:47:54.565Z,92.28
2023-01-04T21:50:21.220Z,92.46
2023-01-04T21:55:19.119Z,91.77
2023-01-04T21:57:45.656Z,91.43
2023-01-04T22:00:12.502Z,91.58
2023-01-04T22:02:41.165Z,91.29
2023-01-04T22:05:08.292Z,91.42
2023-01-04T22:07:34.872Z,91.46
2023-01-04T22:10:01.407Z,92.05
2023-01-04T22:12:28.028Z,91.96
2023-01-04T22:14:54.950Z,91.80
2023-01-04T22:17:21.512Z,91.87
2023-01-04T22:19:48.112Z,92.11
2023-01-04T22:22:14.813Z,92.23
2023-01-04T22:24:41.406Z,92.07
2023-01-04T22:27:08.128Z,92.15
2023-01-04T22:29:34.706Z,91.40
2023-01-04T22:32:01.262Z,91.31
2023-01-04T22:34:28.256Z,91.43
2023-01-04T22:36:54.908Z,91.34
2023-01-04T22:39:21.686Z,91.78
2023-01-04T22:44:20.055Z,91.81
2023-01-04T22:46:46.933Z,91.53
2023-01-04T22:49:13.542Z,91.79
2023-01-04T22:51:41.442Z,91.91
2023-01-04T22:54:10.130Z,91.94
2023-01-04T22:56:36.720Z,92.35
2023-01-04T22:59:03.349Z,91.95
2023-01-04T23:01:32.886Z,92.32
2023-01-04T23:04:01.456Z,92.12
2023-01-04T23:09:10.596Z,91.94
2023-01-04T23:11:38.309Z,91.73
2023-01-04T23:14:07.467Z,92.42
2023-01-04T23:16:34.188Z,92.00
2023-01-04T23:19:02.346Z,92.10
2023-01-04T23:21:30.056Z,92.09
2023-01-04T23:23:56.724Z,91.82
2023-01-04T23:26:24.908Z,91.89
2023-01-04T23:28:51.904Z,91.77
2023-01-04T23:33:57.100Z,91.63
2023-01-04T23:36:27.396Z,91.65
2023-01-04T23:38:56.465Z,91.45
2023-01-04T23:41:44.503Z,91.30
2023-01-04T23:44:17.880Z,91.20
2023-01-04T23:46:45.083Z,91.45
2023-01-04T23:49:12.759Z,91.90
2023-01-04T23:51:39.477Z,91.76
2023-01-04T23:54:06.825Z,93.01
2023-01-04T23:56:33.414Z,93.16
2023-01-04T23:59:00.154Z,92.73
